Time;durP1;ratioP1;P1;durP2;ratioP2;P2;SDS_P1;SDS_P2;PMS_P1;PMS_P2;Temp;Humidity;BMP_temperature;BMP_pressure;BME280_temperature;BME280_humidity;BME280_pressure;Samples;Min_cycle;Max_cycle;Signal;HPM_P1;HPM_P2
2022/05/02 00:02:15;;;;;;;25.33;18.67;;;;;;;7.77;66.60;101938.22;4968693;28;20042;-88
2022/05/02 00:04:40;;;;;;;23.42;17.48;;;;;;;7.72;66.49;101933.88;4977517;28;20400;-88
2022/05/02 00:07:05;;;;;;;22.85;17.58;;;;;;;7.65;66.97;101929.66;4985255;28;20042;-88
2022/05/02 00:09:31;;;;;;;24.08;18.10;;;;;;;7.66;66.84;101927.88;4978289;28;20026;-89
2022/05/02 00:11:58;;;;;;;26.35;17.90;;;;;;;7.59;67.37;101929.75;4984333;28;20435;-89
2022/05/02 00:14:24;;;;;;;27.33;19.77;;;;;;;7.54;67.23;101923.69;4982121;28;20432;-88
2022/05/02 00:16:49;;;;;;;22.58;18.23;;;;;;;7.48;67.21;101924.72;4981286;28;20027;-88
2022/05/02 00:19:14;;;;;;;27.27;19.15;;;;;;;7.54;67.35;101926.34;4983305;28;20125;-88
2022/05/02 00:21:39;;;;;;;25.45;18.23;;;;;;;7.50;67.11;101924.66;4984632;28;20026;-88
2022/05/02 00:24:05;;;;;;;30.20;18.05;;;;;;;7.46;67.56;101917.69;4975371;28;20475;-88
2022/05/02 00:26:30;;;;;;;23.67;19.02;;;;;;;7.45;67.50;101919.47;4986034;28;20057;-88
2022/05/02 00:28:55;;;;;;;27.75;18.92;;;;;;;7.44;67.14;101917.72;4982564;28;20480;-88
2022/05/02 00:31:21;;;;;;;25.75;18.02;;;;;;;7.41;67.27;101916.91;4991157;28;20069;-88
2022/05/02 00:33:46;;;;;;;24.13;18.13;;;;;;;7.39;67.25;101913.41;4963652;28;20480;-88
2022/05/02 00:36:11;;;;;;;29.45;19.58;;;;;;;7.36;67.53;101916.16;4984008;28;20034;-89
2022/05/02 00:38:36;;;;;;;26.35;18.70;;;;;;;7.23;67.60;101897.84;4981494;28;20019;-88
2022/05/02 00:41:02;;;;;;;24.30;19.08;;;;;;;7.19;67.80;101908.50;4987181;28;20026;-88
2022/05/02 00:43:27;;;;;;;26.15;18.70;;;;;;;7.21;68.09;101904.06;4979337;28;20046;-89
2022/05/02 00:45:53;;;;;;;26.35;19.80;;;;;;;7.18;67.96;101909.41;4981530;28;20387;-88
2022/05/02 00:48:20;;;;;;;24.95;18.63;;;;;;;7.15;68.16;101906.84;4987083;28;20033;-88
2022/05/02 00:50:47;;;;;;;26.13;18.63;;;;;;;7.09;68.50;101907.81;4987991;28;20022;-88
2022/05/02 00:53:14;;;;;;;28.33;19.25;;;;;;;7.05;68.54;101905.28;4984726;28;20030;-89
2022/05/02 00:55:41;;;;;;;25.08;18.85;;;;;;;7.00;68.80;101900.06;4989016;28;20042;-89
2022/05/02 00:58:07;;;;;;;28.75;20.40;;;;;;;6.94;68.99;101902.84;4986641;28;20019;-89
2022/05/02 01:00:35;;;;;;;25.45;18.65;;;;;;;6.89;69.27;101900.25;4982295;28;20030;-89
2022/05/02 01:03:02;;;;;;;26.50;19.83;;;;;;;6.85;69.22;101898.56;4992944;28;20023;-88
2022/05/02 01:05:28;;;;;;;28.45;20.25;;;;;;;6.85;69.08;101900.34;4981494;28;20030;-88
2022/05/02 01:07:53;;;;;;;26.17;19.77;;;;;;;6.80;69.10;101899.56;4985616;28;20491;-89
2022/05/02 01:10:19;;;;;;;27.50;19.67;;;;;;;6.77;69.25;101900.47;4986573;28;20561;-89
2022/05/02 01:12:46;;;;;;;28.08;19.98;;;;;;;6.76;69.15;101898.75;4984048;28;20463;-89
2022/05/02 01:15:13;;;;;;;30.10;21.42;;;;;;;6.72;69.19;101897.06;4963613;28;20437;-88
2022/05/02 01:17:38;;;;;;;25.98;19.70;;;;;;;6.66;69.38;101892.75;4991209;28;20140;-89
2022/05/02 01:20:08;;;;;;;27.98;20.08;;;;;;;6.60;69.66;101887.56;4992672;28;20030;-89
2022/05/02 01:22:33;;;;;;;29.05;20.20;;;;;;;6.60;69.75;101889.34;4983497;28;20084;-89
2022/05/02 01:24:58;;;;;;;26.67;19.90;;;;;;;6.57;69.75;101887.63;4982989;28;20439;-89
2022/05/02 01:27:23;;;;;;;29.85;21.52;;;;;;;6.59;69.74;101887.59;4973175;28;20054;-89
2022/05/02 01:29:49;;;;;;;27.38;19.48;;;;;;;6.57;69.81;101892.06;4987486;28;20395;-89
2022/05/02 01:32:15;;;;;;;26.90;20.23;;;;;;;6.48;70.09;101891.31;4993534;28;20034;-87
2022/05/02 01:34:41;;;;;;;28.70;21.23;;;;;;;6.47;70.12;101891.31;4990518;28;20089;-90
2022/05/02 01:37:08;;;;;;;31.42;20.00;;;;;;;6.40;70.02;101887.06;4985832;28;20023;-89
2022/05/02 01:39:33;;;;;;;30.75;20.77;;;;;;;6.38;70.59;101887.06;4987846;28;20480;-90
2022/05/02 01:42:00;;;;;;;27.40;20.27;;;;;;;6.35;70.76;101884.47;4988771;28;20089;-89
2022/05/02 01:44:25;;;;;;;27.08;20.38;;;;;;;6.32;70.77;101887.19;4986797;28;20121;-90
2022/05/02 01:46:52;;;;;;;29.08;21.38;;;;;;;6.31;71.17;101884.53;4980130;28;20484;-90
2022/05/02 01:49:17;;;;;;;30.70;21.55;;;;;;;6.25;71.28;101882.88;4979104;28;20019;-89
2022/05/02 01:51:42;;;;;;;29.85;21.10;;;;;;;6.20;71.41;101876.81;4981994;28;20132;-89
2022/05/02 01:54:07;;;;;;;28.17;20.17;;;;;;;6.20;71.53;101876.81;4987935;28;20041;-90
2022/05/02 01:56:33;;;;;;;30.98;21.73;;;;;;;6.18;71.54;101884.75;4987208;28;20076;-89
2022/05/02 01:58:58;;;;;;;32.70;22.40;;;;;;;6.14;71.56;101876.88;4984664;28;20037;-89
2022/05/02 02:01:23;;;;;;;29.15;20.88;;;;;;;6.13;71.82;101878.66;4989791;28;20081;-90
2022/05/02 02:03:48;;;;;;;29.15;21.63;;;;;;;6.10;71.71;101869.91;4986133;28;20558;-89
2022/05/02 02:06:14;;;;;;;29.10;20.52;;;;;;;6.12;71.69;101876.06;4988717;28;20036;-89
2022/05/02 02:08:39;;;;;;;27.65;21.00;;;;;;;6.06;71.63;101878.78;4981436;28;20027;-89
2022/05/02 02:11:07;;;;;;;29.80;20.05;;;;;;;6.01;71.56;101875.34;4984869;28;20030;-89
2022/05/02 02:13:33;;;;;;;30.50;21.25;;;;;;;5.98;71.93;101877.16;4981798;28;20042;-89
2022/05/02 02:16:00;;;;;;;28.30;21.42;;;;;;;5.96;71.96;101880.69;4982238;28;20044;-89
2022/05/02 02:18:25;;;;;;;30.27;21.10;;;;;;;5.92;72.10;101871.06;4975514;28;20169;-89
2022/05/02 02:20:53;;;;;;;27.65;20.58;;;;;;;5.90;72.07;101886.06;4989138;28;20454;-89
2022/05/02 02:23:19;;;;;;;29.65;21.63;;;;;;;5.88;72.18;101878.13;4984780;28;20404;-89
2022/05/02 02:25:44;;;;;;;29.10;21.48;;;;;;;5.84;72.51;101879.06;4964193;28;20109;-88
2022/05/02 02:28:12;;;;;;;29.27;21.48;;;;;;;5.84;72.29;101878.19;4980924;28;20497;-89
2022/05/02 02:30:37;;;;;;;32.88;22.40;;;;;;;5.77;72.25;101879.19;4986625;28;20117;-89
2022/05/02 02:33:02;;;;;;;29.92;21.95;;;;;;;5.73;72.44;101871.31;4986432;28;20101;-90
2022/05/02 02:35:28;;;;;;;32.33;22.65;;;;;;;5.75;72.89;101880.06;4969965;28;20558;-89
2022/05/02 02:37:54;;;;;;;29.88;21.63;;;;;;;5.74;72.80;101882.75;4981468;28;20092;-89
2022/05/02 02:40:19;;;;;;;29.67;21.58;;;;;;;5.67;73.12;101868.75;4987883;28;20023;-89
2022/05/02 02:42:45;;;;;;;31.63;22.55;;;;;;;5.64;73.65;101873.19;4986336;28;20496;-89
2022/05/02 02:45:11;;;;;;;33.80;21.88;;;;;;;5.62;73.35;101867.94;4979833;28;20031;-89
2022/05/02 02:47:36;;;;;;;30.92;22.95;;;;;;;5.60;73.34;101869.75;4980160;28;20274;-90
2022/05/02 02:50:03;;;;;;;32.30;21.48;;;;;;;5.60;73.37;101871.50;4987994;28;20113;-89
2022/05/02 02:52:28;;;;;;;31.27;23.33;;;;;;;5.49;73.62;101855.81;4987901;28;20495;-89
2022/05/02 02:54:53;;;;;;;34.83;23.48;;;;;;;5.47;73.83;101862.88;4974144;28;20558;-90
2022/05/02 02:57:18;;;;;;;32.03;23.30;;;;;;;5.45;73.88;101862.91;4978131;28;20448;-89
2022/05/02 02:59:44;;;;;;;34.35;22.85;;;;;;;5.39;74.04;101860.34;4979179;28;20035;-89
2022/05/02 03:02:10;;;;;;;33.28;23.60;;;;;;;5.35;74.62;101855.09;4983659;28;20026;-90
2022/05/02 03:07:21;;;;;;;34.22;23.13;;;;;;;5.25;74.74;101846.44;4979672;28;20213;-89
2022/05/02 03:09:47;;;;;;;34.63;23.25;;;;;;;5.23;75.34;101854.38;4986834;28;20018;-90
2022/05/02 03:12:12;;;;;;;30.35;22.52;;;;;;;5.24;75.08;101852.63;4986143;28;20473;-89
2022/05/02 03:14:37;;;;;;;33.90;22.30;;;;;;;5.21;74.93;101848.25;4958790;28;20042;-89
2022/05/02 03:17:04;;;;;;;33.63;23.35;;;;;;;5.17;74.87;101849.16;4976319;28;20042;-90
2022/05/02 03:19:29;;;;;;;31.15;22.00;;;;;;;5.19;74.67;101851.81;4970695;28;20030;-88
2022/05/02 03:21:54;;;;;;;34.65;22.88;;;;;;;5.14;74.85;101845.69;4971044;28;20038;-89
2022/05/02 03:24:19;;;;;;;34.22;23.70;;;;;;;5.09;75.15;101839.59;4974680;28;20019;-89
2022/05/02 03:26:45;;;;;;;33.25;23.15;;;;;;;5.12;75.25;101847.50;4973650;28;20104;-90
2022/05/02 03:29:10;;;;;;;32.58;23.67;;;;;;;5.09;75.13;101844.88;4976680;28;20034;-89
2022/05/02 03:31:35;;;;;;;32.70;24.05;;;;;;;5.04;75.37;101837.03;4976681;28;20109;-89
2022/05/02 03:34:00;;;;;;;32.35;24.05;;;;;;;5.04;75.23;101844.94;4974932;28;20472;-89
2022/05/02 03:36:26;;;;;;;37.63;24.05;;;;;;;4.99;75.74;101839.72;4969990;28;20049;-89
2022/05/02 03:38:51;;;;;;;34.88;23.70;;;;;;;4.96;75.65;101842.38;4970349;28;20153;-88
2022/05/02 03:41:16;;;;;;;32.60;23.67;;;;;;;4.94;75.73;101840.69;4969507;28;20026;-88
2022/05/02 03:43:42;;;;;;;30.45;22.77;;;;;;;4.91;75.37;101846.84;4969856;28;20176;-89
2022/05/02 03:46:08;;;;;;;37.15;24.55;;;;;;;4.86;75.62;101837.25;4948189;28;20114;-88
2022/05/02 03:48:33;;;;;;;33.63;23.15;;;;;;;4.87;76.02;101844.28;4966054;28;20100;-89
2022/05/02 03:50:58;;;;;;;36.58;24.38;;;;;;;4.80;76.14;101830.25;4969042;28;20030;-89
2022/05/02 03:53:23;;;;;;;34.17;24.20;;;;;;;4.82;75.97;101844.31;4971927;28;20420;-87
2022/05/02 03:55:48;;;;;;;37.53;24.80;;;;;;;4.82;76.25;101843.44;4969263;28;20330;-88
2022/05/02 03:58:14;;;;;;;31.40;23.48;;;;;;;4.75;76.30;101832.09;4983335;28;20561;-88
2022/05/02 04:00:39;;;;;;;34.45;23.55;;;;;;;4.80;76.38;101842.56;4979975;28;20109;-89
2022/05/02 04:03:05;;;;;;;36.83;24.95;;;;;;;4.78;76.20;101850.53;4987017;28;20365;-89
2022/05/02 04:05:30;;;;;;;35.67;24.27;;;;;;;4.73;76.81;101841.78;4982705;28;20460;-88
2022/05/02 04:07:55;;;;;;;34.60;23.67;;;;;;;4.73;76.17;101841.78;4985094;28;20589;-88
2022/05/02 04:10:22;;;;;;;35.22;24.23;;;;;;;4.69;76.59;101842.72;4978804;28;20030;-88
2022/05/02 04:12:47;;;;;;;35.38;23.65;;;;;;;4.66;76.69;101838.34;4986083;28;20476;-88
2022/05/02 04:15:13;;;;;;;37.72;24.35;;;;;;;4.65;76.84;101841.88;4983292;28;20065;-89
2022/05/02 04:17:39;;;;;;;34.72;24.95;;;;;;;4.64;77.73;101840.13;4963378;28;20049;-89
2022/05/02 04:20:06;;;;;;;36.95;24.98;;;;;;;4.62;77.67;101844.53;4987027;28;20069;-88
2022/05/02 04:22:31;;;;;;;35.65;25.25;;;;;;;4.63;77.58;101835.72;4982822;28;20030;-88
2022/05/02 04:24:56;;;;;;;37.30;25.02;;;;;;;4.63;77.64;101837.50;4979858;28;20463;-88
2022/05/02 04:27:21;;;;;;;35.85;24.50;;;;;;;4.64;77.87;101842.75;4973380;28;20093;-88
2022/05/02 04:29:47;;;;;;;41.42;26.85;;;;;;;4.62;78.69;101841.03;4971355;28;20035;-90
2022/05/02 04:32:12;;;;;;;36.08;26.08;;;;;;;4.60;78.38;101830.50;4977892;28;20035;-88
2022/05/02 04:34:38;;;;;;;35.67;23.65;;;;;;;4.66;77.77;101840.97;4979092;28;20207;-90
2022/05/02 04:37:03;;;;;;;37.13;25.27;;;;;;;4.66;78.03;101840.97;4981864;28;20022;-88
2022/05/02 04:39:28;;;;;;;97.45;41.63;;;;;;;4.66;77.79;101837.47;4978091;28;20077;-89
2022/05/02 04:41:54;;;;;;;39.67;25.60;;;;;;;4.66;77.85;101840.09;4979593;28;20030;-88
2022/05/02 04:44:19;;;;;;;37.75;25.42;;;;;;;4.68;78.03;101833.03;4981581;28;20090;-88
2022/05/02 04:46:44;;;;;;;35.58;24.30;;;;;;;4.68;78.13;101839.22;4983587;28;20023;-88
2022/05/02 04:49:09;;;;;;;37.58;25.75;;;;;;;4.68;78.55;101836.56;4977479;28;20528;-89
2022/05/02 04:51:35;;;;;;;40.30;26.17;;;;;;;4.70;79.23;101836.53;4974508;28;20022;-88
2022/05/02 04:54:00;;;;;;;40.25;27.27;;;;;;;4.74;78.79;101844.41;4976747;28;20035;-88
2022/05/02 04:56:25;;;;;;;37.55;25.92;;;;;;;4.78;78.92;101842.59;4982077;28;20084;-88
2022/05/02 04:58:50;;;;;;;39.45;25.90;;;;;;;4.86;78.65;101845.16;4981507;28;21961;-88
2022/05/02 05:01:16;;;;;;;38.75;25.52;;;;;;;4.89;78.73;101840.75;4975122;28;20031;-87
2022/05/02 05:03:42;;;;;;;40.13;26.85;;;;;;;4.88;78.72;101836.31;4965668;28;20026;-88
2022/05/02 05:06:07;;;;;;;39.53;26.55;;;;;;;4.99;79.02;101846.78;4984692;28;20105;-88
2022/05/02 05:08:32;;;;;;;38.45;26.33;;;;;;;5.00;79.23;101846.75;4991039;28;20510;-88
2022/05/02 05:11:19;;;;;;;42.08;26.77;;;;;;;5.05;78.81;101854.59;4987492;28;20080;-88
2022/05/02 05:16:20;;;;;;;40.25;26.83;;;;;;;5.08;79.50;101851.94;4987752;28;20391;-88
2022/05/02 05:16:47;;;;;;;40.17;28.52;;;;;;;5.13;79.64;101847.47;4983477;28;20038;-88
2022/05/02 05:19:38;;;;;;;40.53;26.48;;;;;;;5.25;79.29;101849.94;4985829;28;20015;-88
2022/05/02 05:22:14;;;;;;;39.97;26.83;;;;;;;5.36;79.67;101854.22;4988667;28;20419;-88
2022/05/02 05:25:24;;;;;;;42.42;28.15;;;;;;;5.51;78.69;101854.00;4983621;28;20033;-88
2022/05/02 05:28:24;;;;;;;38.67;25.75;;;;;;;5.68;78.19;101853.75;4988366;28;20073;-88
2022/05/02 05:31:00;;;;;;;38.38;26.10;;;;;;;5.85;78.55;101846.50;4994082;28;20033;-88
2022/05/02 05:33:51;;;;;;;37.55;26.40;;;;;;;6.03;77.76;101841.84;4985909;28;20313;-89
2022/05/02 05:36:28;;;;;;;39.42;26.98;;;;;;;6.20;77.71;101837.16;4985665;28;20583;-87
2022/05/02 05:39:05;;;;;;;38.03;26.63;;;;;;;6.33;76.98;101841.31;4986329;28;20447;-87
2022/05/02 05:41:54;;;;;;;37.65;26.92;;;;;;;6.54;76.40;101837.41;4978570;28;20026;-91
2022/05/02 05:44:31;;;;;;;38.33;27.35;;;;;;;6.66;76.24;101841.63;4979702;28;20031;-87
2022/05/02 05:47:24;;;;;;;39.58;27.77;;;;;;;6.81;75.51;101846.59;4981736;28;20434;-88
2022/05/02 05:50:10;;;;;;;41.63;28.23;;;;;;;6.94;74.89;101849.91;4974513;28;20030;-87
2022/05/02 05:52:57;;;;;;;37.90;26.38;;;;;;;7.14;74.50;101847.72;4965116;28;20180;-87
2022/05/02 05:55:35;;;;;;;39.08;27.85;;;;;;;7.28;73.54;101852.75;4985093;28;20409;-88
2022/05/02 05:58:20;;;;;;;38.05;27.02;;;;;;;7.43;73.41;101855.03;4974581;28;20104;-87
2022/05/02 06:00:50;;;;;;;37.10;27.17;;;;;;;7.57;72.90;101857.41;4963042;28;20058;-87
2022/05/02 06:03:23;;;;;;;38.63;27.50;;;;;;;7.71;72.72;101854.44;4986657;28;20276;-88
2022/05/02 06:05:49;;;;;;;36.63;26.87;;;;;;;7.91;72.19;101857.50;4985102;28;20028;-87
2022/05/02 06:08:16;;;;;;;37.78;26.63;;;;;;;8.05;71.58;101849.22;4986007;28;20388;-87
2022/05/02 06:10:42;;;;;;;40.05;27.08;;;;;;;8.24;70.80;101860.25;4979568;28;20077;-88
2022/05/02 06:13:08;;;;;;;36.42;26.42;;;;;;;8.34;70.73;101850.25;4980781;28;20053;-88
2022/05/02 06:18:30;;;;;;;36.15;26.42;;;;;;;8.79;69.54;101857.97;4980270;28;20078;-87
2022/05/02 06:20:59;;;;;;;35.42;25.40;;;;;;;8.93;68.85;101856.66;4983022;28;20049;-88
2022/05/02 06:23:27;;;;;;;32.47;25.33;;;;;;;9.13;68.28;101858.75;4981556;28;20460;-87
2022/05/02 06:25:55;;;;;;;35.83;25.42;;;;;;;9.30;67.48;101855.63;4978134;28;20027;-87
2022/05/02 06:28:26;;;;;;;36.13;25.15;;;;;;;9.47;66.71;101857.75;4965617;28;20053;-87
2022/05/02 06:30:53;;;;;;;32.13;25.38;;;;;;;9.70;66.45;101867.72;4985960;28;20061;-88
2022/05/02 06:33:21;;;;;;;35.08;23.80;;;;;;;9.89;65.40;101854.69;4974840;28;20054;-88
2022/05/02 06:36:12;;;;;;;35.40;24.83;;;;;;;10.09;65.52;101862.03;4975638;28;20039;-86
2022/05/02 06:39:07;;;;;;;34.53;25.48;;;;;;;10.27;65.12;101850.81;4984173;28;20023;-87
2022/05/02 06:41:51;;;;;;;35.30;25.05;;;;;;;10.52;64.18;101857.97;4981979;28;20176;-89
2022/05/02 06:44:31;;;;;;;32.15;22.75;;;;;;;10.76;63.32;101854.44;4982869;28;20083;-88
2022/05/02 06:47:27;;;;;;;34.28;24.40;;;;;;;10.90;62.47;101860.13;4983406;28;20495;-87
2022/05/02 06:49:57;;;;;;;31.00;22.90;;;;;;;11.13;62.28;101863.78;4978451;28;20050;-87
2022/05/02 06:52:32;;;;;;;32.60;23.70;;;;;;;11.31;61.53;101863.09;4970968;28;20439;-86
2022/05/02 06:55:10;;;;;;;28.58;21.67;;;;;;;11.46;60.58;101872.31;4978048;28;20215;-88
2022/05/02 06:57:52;;;;;;;32.58;23.27;;;;;;;11.74;59.95;101864.09;4973763;28;20030;-88
2022/05/02 07:00:20;;;;;;;28.75;21.33;;;;;;;11.98;58.34;101859.63;4953227;28;20508;-87
2022/05/02 07:03:10;;;;;;;27.33;21.23;;;;;;;12.27;59.02;101869.09;4971134;28;20038;-89
2022/05/02 07:05:35;;;;;;;27.98;20.65;;;;;;;12.52;56.48;101862.72;4975732;28;20030;-88
2022/05/02 07:08:05;;;;;;;24.33;18.73;;;;;;;12.76;55.36;101859.00;4974433;28;20385;-88
2022/05/02 07:10:36;;;;;;;22.85;18.80;;;;;;;13.07;54.27;101854.94;4964673;28;20310;-88
2022/05/02 07:13:29;;;;;;;25.38;18.85;;;;;;;13.41;54.74;101854.28;4972402;28;20034;-88
2022/05/02 07:16:10;;;;;;;21.77;18.13;;;;;;;13.76;53.27;101862.50;4969172;28;20030;-87
2022/05/02 07:18:49;;;;;;;22.42;17.73;;;;;;;13.93;51.70;101849.16;4982104;28;20031;-88
2022/05/02 07:21:37;;;;;;;20.40;17.13;;;;;;;14.20;50.82;101852.25;4986307;28;20084;-88
2022/05/02 07:24:13;;;;;;;21.60;15.80;;;;;;;14.31;49.73;101849.06;4973156;28;20061;-88
2022/05/02 07:26:39;;;;;;;21.50;16.17;;;;;;;14.60;48.99;101851.13;4978575;28;20034;-88
2022/05/02 07:29:05;;;;;;;18.48;16.00;;;;;;;14.77;47.84;101847.59;4974484;28;20030;-86
2022/05/02 07:31:32;;;;;;;19.23;16.05;;;;;;;15.03;47.17;101854.25;4976705;28;20034;-87
2022/05/02 07:34:01;;;;;;;21.25;17.10;;;;;;;15.37;46.16;101853.28;4980319;28;20037;-87
2022/05/02 07:36:26;;;;;;;23.88;17.02;;;;;;;15.70;45.49;101841.66;4980582;28;20045;-88
2022/05/02 07:38:54;;;;;;;17.55;14.75;;;;;;;16.08;43.98;101844.81;4976574;28;20172;-86
2022/05/02 07:41:27;;;;;;;16.55;13.95;;;;;;;16.47;43.73;101846.13;4974292;28;20065;-88
2022/05/02 07:44:03;;;;;;;17.67;14.15;;;;;;;16.92;43.20;101852.38;4983523;28;20061;-88
2022/05/02 07:46:50;;;;;;;18.08;13.77;;;;;;;17.34;42.73;101853.34;4976389;28;20080;-87
2022/05/02 07:49:23;;;;;;;17.52;13.77;;;;;;;17.73;41.59;101849.94;4980416;28;20405;-88
2022/05/02 07:51:53;;;;;;;18.10;14.07;;;;;;;17.95;39.71;101852.13;4963280;28;20030;-87
2022/05/02 07:54:20;;;;;;;19.52;13.73;;;;;;;17.97;38.45;101852.00;4980282;28;20443;-87
2022/05/02 07:56:47;;;;;;;18.10;14.30;;;;;;;18.17;39.19;101843.47;4973729;28;20034;-88
2022/05/02 07:59:15;;;;;;;17.65;13.93;;;;;;;18.73;37.89;101854.09;4975570;28;20035;-88
2022/05/02 08:01:41;;;;;;;16.35;13.70;;;;;;;19.08;37.55;101852.50;4975382;28;20038;-88
2022/05/02 08:04:12;;;;;;;21.95;14.50;;;;;;;19.49;36.61;101845.13;4977614;28;20502;-88
2022/05/02 08:07:09;;;;;;;16.02;13.85;;;;;;;20.13;37.51;101848.47;4976230;28;20034;-87
2022/05/02 08:09:49;;;;;;;17.40;13.52;;;;;;;20.43;34.90;101841.72;4972357;28;20498;-87
2022/05/02 08:12:30;;;;;;;18.52;13.30;;;;;;;20.37;33.15;101848.47;4969853;28;20041;-88
2022/05/02 08:15:08;;;;;;;16.10;13.68;;;;;;;20.51;33.60;101839.31;4973689;28;20042;-88
2022/05/02 08:17:57;;;;;;;18.25;13.77;;;;;;;20.96;34.29;101850.25;4970182;28;20065;-88
2022/05/02 08:21:00;;;;;;;17.23;12.35;;;;;;;21.26;31.75;101847.81;4971899;28;20041;-88
2022/05/02 08:27:15;;;;;;;15.95;12.70;;;;;;;21.27;31.14;101835.97;4969407;28;20065;-88
2022/05/02 08:29:59;;;;;;;16.80;12.95;;;;;;;21.78;30.53;101838.19;4976654;28;20493;-89
2022/05/02 08:32:40;;;;;;;16.35;13.13;;;;;;;22.07;29.69;101837.59;4976250;28;20496;-87
2022/05/02 08:35:13;;;;;;;13.45;11.70;;;;;;;21.84;29.19;101840.38;4962996;28;20022;-88
2022/05/02 08:38:02;;;;;;;15.97;11.00;;;;;;;22.04;30.29;101846.00;4962618;28;20030;-88
2022/05/02 08:40:27;;;;;;;22.27;11.45;;;;;;;22.37;28.91;101836.91;4979041;28;20332;-90
2022/05/02 08:43:19;;;;;;;13.02;11.60;;;;;;;23.01;28.49;101838.66;4985717;28;20057;-90
2022/05/02 08:46:23;;;;;;;14.20;10.98;;;;;;;23.14;29.59;101836.56;4972980;28;20415;-90
2022/05/02 08:49:38;;;;;;;15.13;12.20;;;;;;;23.50;28.16;101837.88;4890602;29;20122;-90
2022/05/02 08:52:32;;;;;;;11.27;8.90;;;;;;;24.07;26.58;101838.13;4886263;29;20517;-91
2022/05/02 08:55:08;;;;;;;11.45;9.75;;;;;;;24.31;25.66;101829.56;4886256;29;20032;-90
2022/05/02 08:57:39;;;;;;;13.73;10.68;;;;;;;24.47;25.08;101829.88;4882557;29;20099;-88
2022/05/02 09:00:10;;;;;;;12.77;10.15;;;;;;;24.82;24.16;101836.53;4879507;29;20028;-89
2022/05/02 09:03:19;;;;;;;10.65;9.55;;;;;;;25.07;26.15;101837.75;4873686;29;20107;-87
2022/05/02 09:06:20;;;;;;;11.30;9.63;;;;;;;25.46;24.92;101832.19;4825630;29;20092;-87
2022/05/02 09:09:04;;;;;;;11.70;10.48;;;;;;;25.49;23.75;101835.47;4830085;29;20124;-86
2022/05/02 09:12:05;;;;;;;11.95;10.23;;;;;;;25.75;24.10;101841.06;4830581;29;20050;-87
2022/05/02 09:14:52;;;;;;;13.18;9.93;;;;;;;26.54;23.70;101834.03;4830738;29;20053;-86
2022/05/02 09:17:35;;;;;;;10.98;9.40;;;;;;;26.73;23.06;101836.56;4828258;29;20049;-86
2022/05/02 09:20:19;;;;;;;;;;;;;;;27.71;22.33;101828.88;4816890;29;20075;-87
2022/05/02 09:23:03;;;;;;;10.73;9.52;;;;;;;27.17;20.83;101828.34;4868479;29;19922;-87
2022/05/02 09:25:46;;;;;;;9.50;8.55;;;;;;;26.64;19.90;101828.50;4903531;29;20052;-87
2022/05/02 09:28:29;;;;;;;9.43;8.52;;;;;;;26.71;19.87;101827.69;4901522;29;20156;-86
2022/05/02 09:31:32;;;;;;;9.32;8.32;;;;;;;27.50;20.56;101826.59;4910311;29;20078;-86
2022/05/02 09:34:09;;;;;;;11.30;8.77;;;;;;;27.92;18.77;101824.88;4906681;29;20560;-86
2022/05/02 09:36:56;;;;;;;10.85;8.27;;;;;;;27.87;19.49;101819.06;4942545;28;20124;-87
2022/05/02 09:39:26;;;;;;;9.02;8.10;;;;;;;28.27;18.71;101819.13;4970226;28;20050;-87
2022/05/02 09:42:08;;;;;;;8.77;7.85;;;;;;;28.32;19.38;101829.53;4984317;28;20100;-87
2022/05/02 09:51:17;;;;;;;10.77;9.52;;;;;;;28.57;18.29;101808.53;4974337;28;20088;-86
2022/05/02 09:54:07;;;;;;;10.35;8.77;;;;;;;28.16;19.42;101811.22;4990707;28;20046;-87
2022/05/02 09:56:45;;;;;;;12.52;9.85;;;;;;;28.12;19.44;101809.84;4987287;28;20396;-86
2022/05/02 09:59:23;;;;;;;9.80;8.75;;;;;;;27.82;20.02;101813.22;4957334;28;20038;-87
2022/05/02 10:02:07;;;;;;;10.63;9.43;;;;;;;28.42;19.37;101800.13;4971439;28;20046;-87
2022/05/02 10:04:32;;;;;;;;;;;;;;;29.39;19.49;101805.59;4976240;28;20046;-86
2022/05/02 10:07:06;;;;;;;13.20;9.60;;;;;;;28.51;18.73;101810.06;4989222;28;19928;-88
2022/05/02 10:10:02;;;;;;;9.85;8.77;;;;;;;28.95;18.15;101804.16;4960278;28;20035;-87
2022/05/02 10:12:53;;;;;;;9.43;8.45;;;;;;;29.81;18.83;101812.59;4980525;28;20034;-88
2022/05/02 10:15:39;;;;;;;9.38;8.38;;;;;;;30.02;17.83;101801.81;4982501;28;20517;-88
2022/05/02 10:18:31;;;;;;;9.18;8.18;;;;;;;30.63;17.89;101796.34;4975638;28;20035;-87
2022/05/02 10:21:18;;;;;;;9.38;8.40;;;;;;;30.88;17.13;101788.72;4980444;28;20554;-88
2022/05/02 10:24:24;;;;;;;10.52;9.23;;;;;;;31.13;17.43;101798.38;4980937;28;20109;-86
2022/05/02 10:26:55;;;;;;;11.05;9.00;;;;;;;31.44;16.02;101789.97;4978124;28;20970;-87
2022/05/02 10:29:56;;;;;;;14.70;10.70;;;;;;;32.19;17.51;101780.41;4974694;28;20049;-88
2022/05/02 10:32:35;;;;;;;11.20;9.27;;;;;;;32.15;15.99;101792.88;4969861;28;20070;-87
2022/05/02 10:35:02;;;;;;;9.88;8.88;;;;;;;31.90;15.22;101784.16;4969977;28;20065;-90
2022/05/02 10:37:31;;;;;;;10.10;9.07;;;;;;;31.36;15.90;101794.72;4956407;28;20424;-89
2022/05/02 10:40:30;;;;;;;10.40;9.27;;;;;;;31.75;17.67;101786.91;4981549;28;20099;-89
2022/05/02 10:42:57;;;;;;;10.63;9.52;;;;;;;30.98;16.16;101792.06;4965442;28;20042;-89
2022/05/02 10:45:26;;;;;;;9.50;8.60;;;;;;;30.74;16.33;101772.03;4975444;28;20153;-89
2022/05/02 10:47:54;;;;;;;10.43;9.43;;;;;;;30.45;16.27;101781.06;4975579;28;20113;-89
2022/05/02 10:50:25;;;;;;;10.40;8.27;;;;;;;30.98;16.30;101773.66;4976497;28;20415;-87
2022/05/02 10:53:11;;;;;;;9.32;8.43;;;;;;;31.97;16.18;101770.44;4975157;28;20038;-87
2022/05/02 10:55:54;;;;;;;10.20;8.60;;;;;;;32.88;15.93;101776.06;4971795;28;20053;-86
2022/05/02 10:58:23;;;;;;;12.45;9.13;;;;;;;32.35;15.05;101767.38;4969264;28;20175;-87
2022/05/02 11:01:01;;;;;;;11.23;9.13;;;;;;;32.04;15.83;101770.50;4972222;28;20045;-87
2022/05/02 11:03:46;;;;;;;13.30;9.05;;;;;;;31.10;15.92;101773.16;4974792;28;20053;-87
2022/05/02 11:06:30;;;;;;;9.68;8.43;;;;;;;30.75;17.36;101757.25;4977375;28;20030;-87
2022/05/02 11:09:01;;;;;;;8.70;7.70;;;;;;;28.91;18.02;101763.59;4972571;28;20058;-86
2022/05/02 11:11:46;;;;;;;10.20;9.15;;;;;;;29.40;17.75;101769.75;4978203;28;20039;-86
2022/05/02 11:14:20;;;;;;;10.25;8.77;;;;;;;31.00;17.19;101754.22;4970220;28;20030;-87
2022/05/02 11:17:10;;;;;;;9.85;8.90;;;;;;;31.91;16.53;101751.97;4975101;28;20050;-86
2022/05/02 11:23:27;;;;;;;10.73;9.43;;;;;;;33.70;15.83;101748.47;4901979;29;20140;-88
2022/05/02 11:26:37;;;;;;;10.02;9.00;;;;;;;34.33;15.60;101741.75;4889806;29;20356;-88
2022/05/02 11:29:36;;;;;;;11.77;9.20;;;;;;;35.02;15.25;101743.13;4827462;29;20053;-88
2022/05/02 11:32:04;;;;;;;11.23;10.13;;;;;;;34.34;13.63;101743.44;4821388;29;20041;-88
2022/05/02 11:35:00;;;;;;;10.45;9.35;;;;;;;33.97;14.73;101733.88;4831646;29;20042;-86
2022/05/02 11:37:40;;;;;;;11.27;9.98;;;;;;;33.75;14.83;101738.72;4830309;29;20041;-86
2022/05/02 11:40:16;;;;;;;11.90;9.02;;;;;;;33.91;15.17;101730.03;4827610;29;20086;-85
2022/05/02 11:42:45;;;;;;;12.07;9.07;;;;;;;34.68;14.27;101725.75;4814196;29;20634;-86
2022/05/02 11:45:15;;;;;;;9.95;8.98;;;;;;;35.66;13.54;101729.22;4830516;29;20038;-86
2022/05/02 11:48:10;;;;;;;11.82;9.30;;;;;;;36.32;13.19;101721.47;4818960;29;20430;-86
2022/05/02 11:50:44;;;;;;;12.52;9.98;;;;;;;36.30;12.54;101730.03;4822533;29;20042;-86
2022/05/02 11:53:13;;;;;;;11.90;10.57;;;;;;;34.90;12.97;101729.09;4830275;29;20046;-86
2022/05/02 11:55:40;;;;;;;12.40;10.52;;;;;;;34.39;13.66;101727.06;4830350;29;20161;-86
2022/05/02 11:58:13;;;;;;;12.20;10.90;;;;;;;34.58;13.34;101731.75;4846767;29;20153;-87
2022/05/02 12:00:42;;;;;;;10.57;9.48;;;;;;;34.72;13.67;101728.94;4913124;29;20036;-86
2022/05/02 12:03:16;;;;;;;11.15;9.82;;;;;;;33.31;14.80;101738.13;4898703;29;20050;-86
2022/05/02 12:05:43;;;;;;;11.68;10.57;;;;;;;32.73;14.81;101730.19;4945698;28;20093;-86